Flight Track Log - Related Links

Times and Time Zones

All times are in EDT time to prevent confusion due to time zone crossing. See the EJA658 flight status page for this flight to view local times or setup timezone preferences in your user account.

Time Position Orientation Groundspeed Altitude Reporting Facility
EDT Latitude Longitude Course Direction KTS MPH feet Rate Location/Type
Wed 09:02:52 AM 41.0333 -73.7333 270° West 222 255 3,600  Level New York TRACON
Wed 09:03:52 AM 41.0500 -73.8167 285° West 242 278 6,600 2,650 Climbing New York TRACON
Wed 09:04:52 AM 41.0333 -73.9167 258° West 288 331 8,900 2,650 Climbing New York TRACON
Wed 09:05:52 AM 41.0167 -74.0167 258° West 297 342 11,900 2,350 Climbing New York TRACON
Wed 09:06:52 AM 40.9833 -74.1333 249° West 341 392 13,600 1,700 Climbing New York TRACON
Wed 09:07:52 AM 40.9500 -74.2500 249° West 370 426 15,300 1,700 Climbing New York TRACON
Wed 09:08:00 AM 40.9000 -74.5582 270° West  Level FlightAware Approximate
Wed 09:08:52 AM 40.9167 -74.3833 252° West 385 443 17,000  Level New York TRACON
Wed 09:09:19 AM 40.9125 -74.4558 266° West 387 445 17,100 71 Climbing New York Center
Wed 09:10:17 AM 40.8939 -74.5783 259° West 378 435 17,100  Level New York Center
Wed 09:11:17 AM 40.8706 -74.7169 257° West 378 435 17,100  Level New York Center
Wed 09:12:16 AM 40.8519 -74.8394 259° West 389 448 17,100 -50 Level New York Center
Wed 09:13:16 AM 40.8258 -74.9886 257° West 389 448 17,000 200 Descending New York Center
Wed 09:14:16 AM 40.8069 -75.1108 258° West 389 448 17,500 694 Climbing New York Center
Wed 09:15:17 AM 40.7850 -75.2492 258° West 389 448 18,400 1,300 Climbing New York Center
Wed 09:16:16 AM 40.7539 -75.4061 255° West 394 453 20,100 1,563 Climbing New York Center
Wed 09:17:16 AM 40.7092 -75.5400 246° West 394 453 21,500 1,500 Climbing New York Center
Wed 09:18:16 AM 40.6575 -75.6786 244° Southwest 410 472 23,100 1,686 Climbing New York Center
Wed 09:19:17 AM 40.6058 -75.8144 243° Southwest 415 478 24,900 1,756 Climbing New York Center
Wed 09:20:19 AM 40.5544 -75.9472 243° Southwest 415 478 26,700 1,513 Climbing New York Center
Wed 09:21:16 AM 40.4961 -76.0847 241° Southwest 424 488 27,900 1,678 Climbing New York Center
Wed 09:22:17 AM 40.4556 -76.1989 245° Southwest 414 476 30,000 1,934 Climbing New York Center
Wed 09:23:17 AM 40.4056 -76.3342 244° Southwest 414 476 31,800 1,785 Climbing New York Center
Wed 09:24:18 AM 40.3575 -76.4664 245° Southwest 414 476 33,600 1,785 Climbing New York Center
Wed 09:25:18 AM 40.3197 -76.6022 250° West 409 471 35,400 1,590 Climbing New York Center
Wed 09:26:15 AM 40.2856 -76.7408 252° West 403 464 36,700 1,361 Climbing New York Center
Wed 09:27:17 AM 40.2536 -76.8742 253° West 397 457 38,100 1,328 Climbing New York Center
Wed 09:28:17 AM 40.2153 -77.0094 250° West 397 457 39,400 942 Climbing New York Center
Wed 09:29:18 AM 40.1808 -77.1503 252° West 397 457 40,000 303 Climbing New York Center
Wed 09:30:16 AM 40.1383 -77.3175 252° West 425 489 40,000  Level New York Center
Wed 09:32:09 AM 40.0675 -77.5961 252° West 434 499 40,000  Level Cleveland Center
Wed 09:33:09 AM 40.0278 -77.7497 251° West 429 494 40,000  Level Cleveland Center
Wed 09:34:09 AM 39.9875 -77.9006 251° West 434 499 40,000  Level Cleveland Center
Wed 09:35:09 AM 39.9789 -78.0608 266° West 434 499 40,000  Level Cleveland Center
Wed 09:36:09 AM 39.9822 -78.2178 272° West 439 505 40,000  Level Cleveland Center
Wed 09:37:09 AM 39.9853 -78.3719 272° West 434 499 40,000  Level Cleveland Center
Wed 09:38:09 AM 39.9878 -78.4994 272° West 440 506 40,000  Level Cleveland Center
Wed 09:39:09 AM 39.9928 -78.6700 272° West 440 506 40,000  Level Cleveland Center
Wed 09:40:09 AM 39.9953 -78.8269 271° West 440 506 40,000  Level Cleveland Center
Wed 09:42:09 AM 39.9997 -79.1386 271° West 440 506 40,000  Level Cleveland Center
Wed 09:43:09 AM 40.0036 -79.2958 272° West 440 506 40,000  Level Cleveland Center
Wed 09:44:09 AM 40.0072 -79.4475 272° West 440 506 40,000  Level Cleveland Center
Wed 09:45:09 AM 40.0067 -79.6183 270° West 435 501 40,000  Level Cleveland Center
Wed 09:46:09 AM 40.0119 -79.7592 273° West 435 501 40,000  Level Cleveland Center
Wed 09:47:09 AM 40.0131 -79.9244 271° West 435 501 40,000  Level Cleveland Center
Wed 09:48:09 AM 40.0119 -80.0789 270° West 430 495 40,000  Level Cleveland Center
Wed 09:49:09 AM 40.0144 -80.2361 271° West 430 495 40,000  Level Cleveland Center
Wed 09:50:09 AM 40.0150 -80.3961 270° West 430 495 40,000  Level Cleveland Center
Wed 09:51:09 AM 40.0192 -80.5506 272° West 436 502 40,000  Level Cleveland Center
Wed 09:53:16 AM 40.0158 -80.8756 269° West 438 504 40,000  Level Indianapolis Center
Wed 09:54:18 AM 40.0136 -81.0353 269° West 436 502 40,000  Level Indianapolis Center
Wed 09:55:20 AM 40.0106 -81.1942 269° West 435 501 40,000  Level Indianapolis Center
Wed 09:56:22 AM 40.0092 -81.3522 269° West 433 498 40,000  Level Indianapolis Center
Wed 09:57:24 AM 40.0047 -81.5350 268° West 427 491 40,000  Level Indianapolis Center
Wed 09:58:26 AM 40.0017 -81.6903 269° West 424 488 40,000 -484 Level Indianapolis Center
Wed 09:59:28 AM 39.9994 -81.8375 269° West 426 490 39,000 -919 Descending Indianapolis Center
Wed 10:00:30 AM 39.9953 -81.9942 268° West 430 495 38,100 -484 Descending Indianapolis Center
Wed 10:01:32 AM 39.9911 -82.1464 268° West 419 482 38,000 -48 Descending Indianapolis Center
Wed 10:02:34 AM 39.9867 -82.3258 268° West 421 484 38,000  Level Indianapolis Center
Wed 10:03:36 AM 39.9833 -82.4817 268° West 426 490 38,000  Level Indianapolis Center
Wed 10:04:38 AM 39.9783 -82.6303 268° West 411 473 38,000  Level Indianapolis Center
Wed 10:05:40 AM 39.9742 -82.7806 268° West 411 473 38,000  Level Indianapolis Center
Wed 10:06:42 AM 39.9694 -82.9331 268° West 417 480 38,000  Level Indianapolis Center
Wed 10:07:44 AM 39.9650 -83.0856 268° West 419 482 38,000  Level Indianapolis Center
Wed 10:08:46 AM 39.9622 -83.2381 269° West 419 482 38,000  Level Indianapolis Center
Wed 10:09:48 AM 39.9567 -83.4150 268° West 420 483 38,000  Level Indianapolis Center
Wed 10:10:50 AM 39.9506 -83.5661 267° West 425 489 38,000  Level Indianapolis Center
Wed 10:11:52 AM 39.9439 -83.7192 267° West 426 490 38,000  Level Indianapolis Center
Wed 10:12:54 AM 39.9386 -83.8728 267° West 424 488 38,000  Level Indianapolis Center
Wed 10:13:56 AM 39.9311 -84.0544 267° West 427 491 38,000  Level Indianapolis Center
Wed 10:14:58 AM 39.9250 -84.2097 267° West 428 493 38,000  Level Indianapolis Center
Wed 10:16:00 AM 39.9186 -84.3658 267° West 427 491 38,000  Level Indianapolis Center
Wed 10:17:02 AM 39.9114 -84.5219 267° West 428 493 38,000  Level Indianapolis Center
Wed 10:18:04 AM 39.9039 -84.6764 266° West 425 489 38,000  Level Indianapolis Center
Wed 10:19:07 AM 39.8969 -84.8303 267° West 424 488 38,000  Level Indianapolis Center
Wed 10:20:09 AM 39.8894 -84.9939 267° West 423 487 38,000  Level Indianapolis Center
Wed 10:21:11 AM 39.8814 -85.1472 266° West 421 484 38,000  Level Indianapolis Center
Wed 10:22:13 AM 39.8747 -85.3006 267° West 421 484 38,000  Level Indianapolis Center
Wed 10:23:15 AM 39.8639 -85.4767 265° West 418 481 38,000  Level Indianapolis Center
Wed 10:24:17 AM 39.8564 -85.6281 266° West 416 479 38,000  Level Indianapolis Center
Wed 10:25:19 AM 39.8492 -85.7792 266° West 416 479 38,000  Level Indianapolis Center
Wed 10:26:21 AM 39.8400 -85.9300 266° West 417 480 38,000  Level Indianapolis Center
Wed 10:27:23 AM 39.8317 -86.0842 266° West 427 491 38,000  Level Indianapolis Center
Wed 10:28:25 AM 39.8206 -86.2606 265° West 434 499 38,000  Level Indianapolis Center
Wed 10:29:27 AM 39.8039 -86.4183 262° West 439 505 38,000  Level Indianapolis Center
Wed 10:30:29 AM 39.7664 -86.5669 252° West 437 503 38,000 -290 Level Indianapolis Center
Wed 10:31:31 AM 39.7303 -86.7136 252° West 426 490 37,400 -774 Descending Indianapolis Center
Wed 10:32:33 AM 39.6933 -86.8611 252° West 429 494 36,400 -677 Descending Indianapolis Center
Wed 10:33:35 AM 39.6497 -87.0358 252° West 434 499 36,000 -194 Descending Indianapolis Center
Wed 10:34:37 AM 39.6131 -87.1844 252° West 432 497 36,000  Level Indianapolis Center
Wed 10:35:39 AM 39.5753 -87.3339 252° West 432 497 36,000 -532 Level Indianapolis Center
Wed 10:36:41 AM 39.5367 -87.4808 251° West 430 495 34,900 -960 Descending Indianapolis Center
Wed 10:37:44 AM 39.4997 -87.6294 252° West 431 496 34,000 -435 Descending Indianapolis Center
Wed 10:38:45 AM 39.4611 -87.7769 251° West 430 495 34,000  Level Indianapolis Center
Wed 10:39:33 AM 39.4303 -87.8986 252° West 434 499 34,000  Level Kansas City Center
Wed 10:40:35 AM 39.3914 -88.0467 251° West 435 501 34,000  Level Kansas City Center
Wed 10:41:37 AM 39.3525 -88.1928 251° West 433 498 34,000 -532 Level Kansas City Center
Wed 10:42:39 AM 39.3072 -88.3614 251° West 418 481 32,900 -1,597 Descending Kansas City Center
Wed 10:43:41 AM 39.2697 -88.5061 252° West 422 486 30,700 -2,129 Descending Kansas City Center
Wed 10:44:43 AM 39.2331 -88.6442 251° West 429 494 28,500 -2,226 Descending Kansas City Center
Wed 10:45:45 AM 39.1925 -88.7928 251° West 437 503 26,100 -2,323 Descending Kansas City Center
Wed 10:46:47 AM 39.1458 -88.9664 251° West 441 507 23,700 -1,536 Descending Kansas City Center
Wed 10:47:50 AM 39.1075 -89.1072 251° West 389 448 22,900 -1,344 Descending Kansas City Center
Wed 10:48:52 AM 39.0753 -89.2436 253° West 397 457 20,900 -2,177 Descending Kansas City Center
Wed 10:49:54 AM 39.0442 -89.3800 254° West 398 458 18,400 -2,419 Descending Kansas City Center
Wed 10:50:56 AM 39.0125 -89.5214 254° West 384 442 15,900 -1,597 Descending Kansas City Center
Wed 10:51:58 AM 38.9806 -89.6414 251° West 361 415 15,100 -919 Descending Kansas City Center
Wed 10:53:00 AM 38.9403 -89.7689 248° West 360 414 14,000 -1,500 Descending Kansas City Center
Wed 10:54:02 AM 38.9031 -89.8878 248° West 359 413 12,000 -2,032 Descending Kansas City Center
Wed 10:55:04 AM 38.8669 -90.0031 248° West 344 396 9,800 -1,742 Descending Kansas City Center
Wed 10:56:06 AM 38.8375 -90.0958 248° West 302 348 8,400 -871 Descending Kansas City Center
Wed 10:57:08 AM 38.8092 -90.1850 248° West 281 323 8,000 -387 Descending Kansas City Center
Wed 10:58:10 AM 38.8264 -90.2783 283° West 282 325 7,600 -1,403 Descending Kansas City Center
Wed 10:59:12 AM 38.8589 -90.3786 293° West 265 305 5,100 -1,935 Descending Kansas City Center
Wed 11:00:14 AM 38.8706 -90.4558 281° West 247 284 3,600 -1,161 Descending Kansas City Center
Wed 11:01:16 AM 38.8231 -90.4919 211° Southwest 226 260 2,700 -823 Descending Kansas City Center
Wed 11:02:18 AM 38.7869 -90.4367 130° Southeast 213 245 1,900 -871 Descending Kansas City Center
Wed 11:03:20 AM 38.7636 -90.3878 121° Southeast 175 201 900 -968 Descending Kansas City Center
Wed 11:05:00 AM 38.7487 -90.3700 154° Southeast  Level Estimated

Login

Don't have an account? Register now (free) for customized features, flight alerts, and more!